sensor_id;sensor_type;location;lat;lon;timestamp;temperature;humidity
30148;DHT22;16960;49.404;8.248;2023-09-18T00:02:22;26.20;52.10
30148;DHT22;16960;49.404;8.248;2023-09-18T00:04:49;26.20;52.10
30148;DHT22;16960;49.404;8.248;2023-09-18T00:07:16;26.20;52.10
30148;DHT22;16960;49.404;8.248;2023-09-18T00:09:44;26.20;52.00
30148;DHT22;16960;49.404;8.248;2023-09-18T00:12:11;26.20;52.00
30148;DHT22;16960;49.404;8.248;2023-09-18T00:14:38;26.20;52.00
30148;DHT22;16960;49.404;8.248;2023-09-18T00:17:06;26.20;52.00
30148;DHT22;16960;49.404;8.248;2023-09-18T00:19:33;26.20;52.00
30148;DHT22;16960;49.404;8.248;2023-09-18T00:22:00;26.20;52.10
30148;DHT22;16960;49.404;8.248;2023-09-18T00:24:27;26.20;52.10
30148;DHT22;16960;49.404;8.248;2023-09-18T00:26:55;26.20;52.10
30148;DHT22;16960;49.404;8.248;2023-09-18T00:29:22;26.10;52.10
30148;DHT22;16960;49.404;8.248;2023-09-18T00:31:49;26.10;52.10
30148;DHT22;16960;49.404;8.248;2023-09-18T00:34:16;26.20;52.10
30148;DHT22;16960;49.404;8.248;2023-09-18T00:36:43;26.10;52.10
30148;DHT22;16960;49.404;8.248;2023-09-18T00:39:10;26.20;52.10
30148;DHT22;16960;49.404;8.248;2023-09-18T00:41:37;26.20;52.10
30148;DHT22;16960;49.404;8.248;2023-09-18T00:44:06;26.10;52.10
30148;DHT22;16960;49.404;8.248;2023-09-18T00:46:33;26.10;52.20
30148;DHT22;16960;49.404;8.248;2023-09-18T00:49:01;26.10;52.20
30148;DHT22;16960;49.404;8.248;2023-09-18T00:51:29;26.20;52.10
30148;DHT22;16960;49.404;8.248;2023-09-18T00:53:56;26.20;52.10
30148;DHT22;16960;49.404;8.248;2023-09-18T00:56:23;26.20;52.20
30148;DHT22;16960;49.404;8.248;2023-09-18T00:58:50;26.10;52.20
30148;DHT22;16960;49.404;8.248;2023-09-18T01:01:19;26.20;52.20
30148;DHT22;16960;49.404;8.248;2023-09-18T01:03:49;26.10;52.20
30148;DHT22;16960;49.404;8.248;2023-09-18T01:06:16;26.10;52.10
30148;DHT22;16960;49.404;8.248;2023-09-18T01:08:45;26.10;52.10
30148;DHT22;16960;49.404;8.248;2023-09-18T01:11:17;26.10;52.20
30148;DHT22;16960;49.404;8.248;2023-09-18T01:13:52;26.10;52.20
30148;DHT22;16960;49.404;8.248;2023-09-18T01:16:25;26.10;52.20
30148;DHT22;16960;49.404;8.248;2023-09-18T01:18:53;26.10;52.20
30148;DHT22;16960;49.404;8.248;2023-09-18T01:21:21;26.10;52.20
30148;DHT22;16960;49.404;8.248;2023-09-18T01:23:49;26.10;52.20
30148;DHT22;16960;49.404;8.248;2023-09-18T01:26:17;26.10;52.20
30148;DHT22;16960;49.404;8.248;2023-09-18T01:28:44;26.10;52.20
30148;DHT22;16960;49.404;8.248;2023-09-18T01:31:11;26.10;52.20
30148;DHT22;16960;49.404;8.248;2023-09-18T01:33:38;26.10;52.20
30148;DHT22;16960;49.404;8.248;2023-09-18T01:36:07;26.10;52.10
30148;DHT22;16960;49.404;8.248;2023-09-18T01:38:35;26.10;52.20
30148;DHT22;16960;49.404;8.248;2023-09-18T01:41:04;26.00;52.20
30148;DHT22;16960;49.404;8.248;2023-09-18T01:43:31;26.00;52.40
30148;DHT22;16960;49.404;8.248;2023-09-18T01:45:58;26.00;52.40
30148;DHT22;16960;49.404;8.248;2023-09-18T01:48:40;26.10;52.40
30148;DHT22;16960;49.404;8.248;2023-09-18T01:51:13;26.00;52.50
30148;DHT22;16960;49.404;8.248;2023-09-18T01:53:40;26.10;52.60
30148;DHT22;16960;49.404;8.248;2023-09-18T01:56:09;26.00;52.60
30148;DHT22;16960;49.404;8.248;2023-09-18T01:58:35;26.10;52.70
30148;DHT22;16960;49.404;8.248;2023-09-18T02:01:02;26.00;52.70
30148;DHT22;16960;49.404;8.248;2023-09-18T02:03:30;26.00;52.70
30148;DHT22;16960;49.404;8.248;2023-09-18T02:05:57;26.10;52.80
30148;DHT22;16960;49.404;8.248;2023-09-18T02:08:23;26.10;52.80
30148;DHT22;16960;49.404;8.248;2023-09-18T02:10:50;26.10;52.80
30148;DHT22;16960;49.404;8.248;2023-09-18T02:13:19;26.00;52.80
30148;DHT22;16960;49.404;8.248;2023-09-18T02:15:46;26.10;52.90
30148;DHT22;16960;49.404;8.248;2023-09-18T02:18:12;26.00;52.90
30148;DHT22;16960;49.404;8.248;2023-09-18T02:20:41;26.00;52.90
30148;DHT22;16960;49.404;8.248;2023-09-18T02:23:09;26.00;52.90
30148;DHT22;16960;49.404;8.248;2023-09-18T02:25:36;26.00;52.90
30148;DHT22;16960;49.404;8.248;2023-09-18T02:28:04;26.00;52.90
30148;DHT22;16960;49.404;8.248;2023-09-18T02:30:32;26.00;52.90
30148;DHT22;16960;49.404;8.248;2023-09-18T02:33:16;26.00;52.80
30148;DHT22;16960;49.404;8.248;2023-09-18T02:35:43;26.00;52.90
30148;DHT22;16960;49.404;8.248;2023-09-18T02:38:10;26.00;52.80
30148;DHT22;16960;49.404;8.248;2023-09-18T02:40:37;26.00;52.90
30148;DHT22;16960;49.404;8.248;2023-09-18T02:43:04;26.00;52.90
30148;DHT22;16960;49.404;8.248;2023-09-18T02:45:30;26.00;52.90
30148;DHT22;16960;49.404;8.248;2023-09-18T02:48:01;26.00;53.00
30148;DHT22;16960;49.404;8.248;2023-09-18T02:50:28;26.00;53.00
30148;DHT22;16960;49.404;8.248;2023-09-18T02:52:55;26.00;53.10
30148;DHT22;16960;49.404;8.248;2023-09-18T02:55:22;26.00;53.10
30148;DHT22;16960;49.404;8.248;2023-09-18T02:57:48;26.00;53.20
30148;DHT22;16960;49.404;8.248;2023-09-18T03:00:16;26.00;53.20
30148;DHT22;16960;49.404;8.248;2023-09-18T03:02:44;26.00;53.20
30148;DHT22;16960;49.404;8.248;2023-09-18T03:05:12;26.00;53.20
30148;DHT22;16960;49.404;8.248;2023-09-18T03:07:39;26.00;53.20
30148;DHT22;16960;49.404;8.248;2023-09-18T03:10:07;26.00;53.20
30148;DHT22;16960;49.404;8.248;2023-09-18T03:12:38;26.00;53.20
30148;DHT22;16960;49.404;8.248;2023-09-18T03:15:06;26.00;53.20
30148;DHT22;16960;49.404;8.248;2023-09-18T03:17:33;26.00;53.20
30148;DHT22;16960;49.404;8.248;2023-09-18T03:20:00;26.00;53.20
30148;DHT22;16960;49.404;8.248;2023-09-18T03:22:28;25.90;52.70
30148;DHT22;16960;49.404;8.248;2023-09-18T03:24:55;26.00;53.20
30148;DHT22;16960;49.404;8.248;2023-09-18T03:27:22;26.00;53.20
30148;DHT22;16960;49.404;8.248;2023-09-18T03:29:54;26.00;53.20
30148;DHT22;16960;49.404;8.248;2023-09-18T03:32:21;26.00;53.20
30148;DHT22;16960;49.404;8.248;2023-09-18T03:34:50;26.00;53.30
30148;DHT22;16960;49.404;8.248;2023-09-18T03:37:17;25.90;52.80
30148;DHT22;16960;49.404;8.248;2023-09-18T03:39:46;26.00;53.30
30148;DHT22;16960;49.404;8.248;2023-09-18T03:42:13;25.90;52.80
30148;DHT22;16960;49.404;8.248;2023-09-18T03:44:39;26.00;53.30
30148;DHT22;16960;49.404;8.248;2023-09-18T03:47:06;25.90;52.90
30148;DHT22;16960;49.404;8.248;2023-09-18T03:49:33;26.00;53.40
30148;DHT22;16960;49.404;8.248;2023-09-18T03:52:04;25.90;52.90
30148;DHT22;16960;49.404;8.248;2023-09-18T03:54:31;25.90;52.90
30148;DHT22;16960;49.404;8.248;2023-09-18T03:56:59;25.90;52.90
30148;DHT22;16960;49.404;8.248;2023-09-18T03:59:26;25.90;53.00
30148;DHT22;16960;49.404;8.248;2023-09-18T04:01:53;25.90;53.00
30148;DHT22;16960;49.404;8.248;2023-09-18T04:04:20;25.90;52.90
30148;DHT22;16960;49.404;8.248;2023-09-18T04:06:47;25.90;52.90
30148;DHT22;16960;49.404;8.248;2023-09-18T04:09:15;25.90;53.00
30148;DHT22;16960;49.404;8.248;2023-09-18T04:11:43;25.90;53.00
30148;DHT22;16960;49.404;8.248;2023-09-18T04:14:11;25.90;53.10
30148;DHT22;16960;49.404;8.248;2023-09-18T04:16:38;25.90;53.20
30148;DHT22;16960;49.404;8.248;2023-09-18T04:19:07;25.90;53.10
30148;DHT22;16960;49.404;8.248;2023-09-18T04:21:35;25.80;53.10
30148;DHT22;16960;49.404;8.248;2023-09-18T04:24:02;25.90;53.20
30148;DHT22;16960;49.404;8.248;2023-09-18T04:26:29;25.90;53.20
30148;DHT22;16960;49.404;8.248;2023-09-18T04:28:57;25.90;53.30
30148;DHT22;16960;49.404;8.248;2023-09-18T04:31:25;25.80;53.30
30148;DHT22;16960;49.404;8.248;2023-09-18T04:33:52;25.80;53.30
30148;DHT22;16960;49.404;8.248;2023-09-18T04:36:19;25.90;53.30
30148;DHT22;16960;49.404;8.248;2023-09-18T04:38:46;25.90;53.20
30148;DHT22;16960;49.404;8.248;2023-09-18T04:41:14;25.80;53.20
30148;DHT22;16960;49.404;8.248;2023-09-18T04:43:41;25.80;53.30
30148;DHT22;16960;49.404;8.248;2023-09-18T04:46:08;25.80;53.30
30148;DHT22;16960;49.404;8.248;2023-09-18T04:48:36;25.80;53.20
30148;DHT22;16960;49.404;8.248;2023-09-18T04:51:03;25.80;53.20
30148;DHT22;16960;49.404;8.248;2023-09-18T04:53:31;25.80;53.30
30148;DHT22;16960;49.404;8.248;2023-09-18T04:55:58;25.80;53.30
30148;DHT22;16960;49.404;8.248;2023-09-18T04:58:26;25.80;53.30
30148;DHT22;16960;49.404;8.248;2023-09-18T05:00:54;25.80;53.40
30148;DHT22;16960;49.404;8.248;2023-09-18T05:03:21;25.80;53.40
30148;DHT22;16960;49.404;8.248;2023-09-18T05:05:50;25.80;53.30
30148;DHT22;16960;49.404;8.248;2023-09-18T05:08:17;25.80;53.30
30148;DHT22;16960;49.404;8.248;2023-09-18T05:10:45;25.80;53.30
30148;DHT22;16960;49.404;8.248;2023-09-18T05:13:13;25.70;53.30
30148;DHT22;16960;49.404;8.248;2023-09-18T05:15:40;25.80;53.30
30148;DHT22;16960;49.404;8.248;2023-09-18T05:18:06;25.80;53.30
30148;DHT22;16960;49.404;8.248;2023-09-18T05:20:34;25.80;53.20
30148;DHT22;16960;49.404;8.248;2023-09-18T05:23:04;25.80;53.20
30148;DHT22;16960;49.404;8.248;2023-09-18T05:25:44;25.80;53.20
30148;DHT22;16960;49.404;8.248;2023-09-18T05:28:11;25.80;53.30
30148;DHT22;16960;49.404;8.248;2023-09-18T05:30:38;25.80;53.30
30148;DHT22;16960;49.404;8.248;2023-09-18T05:33:05;25.80;53.30
30148;DHT22;16960;49.404;8.248;2023-09-18T05:35:34;25.80;53.40
30148;DHT22;16960;49.404;8.248;2023-09-18T05:38:03;25.80;53.40
30148;DHT22;16960;49.404;8.248;2023-09-18T05:40:30;25.80;53.30
30148;DHT22;16960;49.404;8.248;2023-09-18T05:42:58;25.80;53.30
30148;DHT22;16960;49.404;8.248;2023-09-18T05:45:25;25.80;53.30
30148;DHT22;16960;49.404;8.248;2023-09-18T05:47:53;25.80;53.30
30148;DHT22;16960;49.404;8.248;2023-09-18T05:50:20;25.80;53.20
30148;DHT22;16960;49.404;8.248;2023-09-18T05:52:47;25.80;53.20
30148;DHT22;16960;49.404;8.248;2023-09-18T05:55:15;25.80;53.20
30148;DHT22;16960;49.404;8.248;2023-09-18T05:57:42;25.80;53.20
30148;DHT22;16960;49.404;8.248;2023-09-18T06:00:10;25.80;53.20
30148;DHT22;16960;49.404;8.248;2023-09-18T06:02:38;25.80;53.70
30148;DHT22;16960;49.404;8.248;2023-09-18T06:05:06;25.80;54.40
30148;DHT22;16960;49.404;8.248;2023-09-18T06:07:37;25.80;53.80
30148;DHT22;16960;49.404;8.248;2023-09-18T06:10:04;25.80;53.80
30148;DHT22;16960;49.404;8.248;2023-09-18T06:12:33;25.80;53.80
30148;DHT22;16960;49.404;8.248;2023-09-18T06:15:00;25.90;53.60
30148;DHT22;16960;49.404;8.248;2023-09-18T06:17:27;25.90;53.60
30148;DHT22;16960;49.404;8.248;2023-09-18T06:19:54;26.00;54.00
30148;DHT22;16960;49.404;8.248;2023-09-18T06:22:21;26.00;54.00
30148;DHT22;16960;49.404;8.248;2023-09-18T06:24:48;26.00;53.90
30148;DHT22;16960;49.404;8.248;2023-09-18T06:27:14;26.00;53.90
30148;DHT22;16960;49.404;8.248;2023-09-18T06:29:43;26.00;53.70
30148;DHT22;16960;49.404;8.248;2023-09-18T06:32:10;26.10;53.70
30148;DHT22;16960;49.404;8.248;2023-09-18T06:34:37;26.10;53.70
30148;DHT22;16960;49.404;8.248;2023-09-18T06:37:03;26.10;53.50
30148;DHT22;16960;49.404;8.248;2023-09-18T06:39:33;26.10;53.50
30148;DHT22;16960;49.404;8.248;2023-09-18T06:41:59;26.10;53.40
30148;DHT22;16960;49.404;8.248;2023-09-18T06:44:26;26.10;53.50
30148;DHT22;16960;49.404;8.248;2023-09-18T06:46:55;26.10;53.50
30148;DHT22;16960;49.404;8.248;2023-09-18T06:49:21;26.10;53.50
30148;DHT22;16960;49.404;8.248;2023-09-18T06:51:48;26.20;53.60
30148;DHT22;16960;49.404;8.248;2023-09-18T06:54:15;26.10;53.60
30148;DHT22;16960;49.404;8.248;2023-09-18T06:56:42;26.10;53.60
30148;DHT22;16960;49.404;8.248;2023-09-18T06:59:10;26.10;53.60
30148;DHT22;16960;49.404;8.248;2023-09-18T07:01:37;26.10;53.70
30148;DHT22;16960;49.404;8.248;2023-09-18T07:04:06;26.10;53.60
30148;DHT22;16960;49.404;8.248;2023-09-18T07:06:33;26.10;53.50
30148;DHT22;16960;49.404;8.248;2023-09-18T07:09:00;26.20;53.40
30148;DHT22;16960;49.404;8.248;2023-09-18T07:11:29;26.20;53.40
30148;DHT22;16960;49.404;8.248;2023-09-18T07:13:56;26.20;53.30
30148;DHT22;16960;49.404;8.248;2023-09-18T07:16:22;26.20;53.10
30148;DHT22;16960;49.404;8.248;2023-09-18T07:18:50;26.20;53.10
30148;DHT22;16960;49.404;8.248;2023-09-18T07:21:18;26.20;53.00
30148;DHT22;16960;49.404;8.248;2023-09-18T07:23:46;26.20;53.10
30148;DHT22;16960;49.404;8.248;2023-09-18T07:26:14;26.20;53.00
30148;DHT22;16960;49.404;8.248;2023-09-18T07:28:41;26.20;52.90
30148;DHT22;16960;49.404;8.248;2023-09-18T07:31:11;26.30;52.80
30148;DHT22;16960;49.404;8.248;2023-09-18T07:33:40;26.30;52.80
30148;DHT22;16960;49.404;8.248;2023-09-18T07:36:07;26.30;52.80
30148;DHT22;16960;49.404;8.248;2023-09-18T07:38:36;26.30;52.80
30148;DHT22;16960;49.404;8.248;2023-09-18T07:41:04;26.30;52.80
30148;DHT22;16960;49.404;8.248;2023-09-18T07:43:31;26.30;52.80
30148;DHT22;16960;49.404;8.248;2023-09-18T07:45:57;26.30;52.90
30148;DHT22;16960;49.404;8.248;2023-09-18T07:48:25;26.30;52.90
30148;DHT22;16960;49.404;8.248;2023-09-18T07:50:52;26.30;53.00
30148;DHT22;16960;49.404;8.248;2023-09-18T07:53:20;26.30;53.00
30148;DHT22;16960;49.404;8.248;2023-09-18T07:55:55;26.30;53.00
30148;DHT22;16960;49.404;8.248;2023-09-18T07:58:23;26.30;52.90
30148;DHT22;16960;49.404;8.248;2023-09-18T08:00:54;26.30;53.10
30148;DHT22;16960;49.404;8.248;2023-09-18T08:03:22;26.30;53.00
30148;DHT22;16960;49.404;8.248;2023-09-18T08:05:50;26.30;53.00
30148;DHT22;16960;49.404;8.248;2023-09-18T08:08:18;26.30;52.90
30148;DHT22;16960;49.404;8.248;2023-09-18T08:10:45;26.30;53.00
30148;DHT22;16960;49.404;8.248;2023-09-18T08:13:14;26.30;53.00
30148;DHT22;16960;49.404;8.248;2023-09-18T08:15:40;26.30;53.00
30148;DHT22;16960;49.404;8.248;2023-09-18T08:18:07;26.30;52.90
30148;DHT22;16960;49.404;8.248;2023-09-18T08:20:34;26.30;52.80
30148;DHT22;16960;49.404;8.248;2023-09-18T08:23:03;26.30;52.80
30148;DHT22;16960;49.404;8.248;2023-09-18T08:25:31;26.30;52.90
30148;DHT22;16960;49.404;8.248;2023-09-18T08:27:58;26.30;52.90
30148;DHT22;16960;49.404;8.248;2023-09-18T08:30:27;26.30;52.80
30148;DHT22;16960;49.404;8.248;2023-09-18T08:32:54;26.30;52.80
30148;DHT22;16960;49.404;8.248;2023-09-18T08:35:21;26.30;52.80
30148;DHT22;16960;49.404;8.248;2023-09-18T08:37:48;26.30;52.80
30148;DHT22;16960;49.404;8.248;2023-09-18T08:40:15;26.30;52.80
30148;DHT22;16960;49.404;8.248;2023-09-18T08:42:45;26.30;52.80
30148;DHT22;16960;49.404;8.248;2023-09-18T08:45:25;26.20;52.80
30148;DHT22;16960;49.404;8.248;2023-09-18T08:47:56;26.20;52.90
30148;DHT22;16960;49.404;8.248;2023-09-18T08:50:23;26.20;52.90
30148;DHT22;16960;49.404;8.248;2023-09-18T08:52:51;26.20;52.90
30148;DHT22;16960;49.404;8.248;2023-09-18T08:55:18;26.20;52.90
30148;DHT22;16960;49.404;8.248;2023-09-18T08:57:46;26.20;52.90
30148;DHT22;16960;49.404;8.248;2023-09-18T09:00:14;26.20;52.90
30148;DHT22;16960;49.404;8.248;2023-09-18T09:02:43;26.20;52.90
30148;DHT22;16960;49.404;8.248;2023-09-18T09:05:11;26.20;53.00
30148;DHT22;16960;49.404;8.248;2023-09-18T09:07:38;26.20;52.90
30148;DHT22;16960;49.404;8.248;2023-09-18T09:10:06;26.20;52.90
30148;DHT22;16960;49.404;8.248;2023-09-18T09:12:52;26.20;52.90
30148;DHT22;16960;49.404;8.248;2023-09-18T09:15:20;26.30;53.00
30148;DHT22;16960;49.404;8.248;2023-09-18T09:17:49;26.20;53.00
30148;DHT22;16960;49.404;8.248;2023-09-18T09:20:17;26.30;53.00
30148;DHT22;16960;49.404;8.248;2023-09-18T09:22:45;26.30;53.00
30148;DHT22;16960;49.404;8.248;2023-09-18T09:25:23;26.30;53.10
30148;DHT22;16960;49.404;8.248;2023-09-18T09:27:51;26.30;53.10
30148;DHT22;16960;49.404;8.248;2023-09-18T09:30:20;26.30;53.10
30148;DHT22;16960;49.404;8.248;2023-09-18T09:32:48;26.30;53.10
30148;DHT22;16960;49.404;8.248;2023-09-18T09:35:22;26.30;53.10
30148;DHT22;16960;49.404;8.248;2023-09-18T09:37:50;26.30;53.20
30148;DHT22;16960;49.404;8.248;2023-09-18T09:40:19;26.30;53.20
30148;DHT22;16960;49.404;8.248;2023-09-18T09:42:47;26.20;53.20
30148;DHT22;16960;49.404;8.248;2023-09-18T09:45:15;26.30;53.20
30148;DHT22;16960;49.404;8.248;2023-09-18T09:47:43;26.30;53.30
30148;DHT22;16960;49.404;8.248;2023-09-18T09:50:11;26.30;53.30
30148;DHT22;16960;49.404;8.248;2023-09-18T09:52:44;26.30;53.20
30148;DHT22;16960;49.404;8.248;2023-09-18T09:55:18;26.30;53.30
30148;DHT22;16960;49.404;8.248;2023-09-18T09:57:50;26.30;53.30
30148;DHT22;16960;49.404;8.248;2023-09-18T10:00:17;26.30;53.20
30148;DHT22;16960;49.404;8.248;2023-09-18T10:02:57;26.30;53.30
30148;DHT22;16960;49.404;8.248;2023-09-18T10:05:27;26.30;53.40
30148;DHT22;16960;49.404;8.248;2023-09-18T10:07:58;26.30;53.40
30148;DHT22;16960;49.404;8.248;2023-09-18T10:10:31;26.30;53.40
30148;DHT22;16960;49.404;8.248;2023-09-18T10:13:03;26.30;53.40
30148;DHT22;16960;49.404;8.248;2023-09-18T10:15:34;26.30;53.40
30148;DHT22;16960;49.404;8.248;2023-09-18T10:18:05;26.30;53.40
30148;DHT22;16960;49.404;8.248;2023-09-18T10:20:37;26.30;53.50
30148;DHT22;16960;49.404;8.248;2023-09-18T10:23:15;26.30;53.40
30148;DHT22;16960;49.404;8.248;2023-09-18T10:25:48;26.30;53.50
30148;DHT22;16960;49.404;8.248;2023-09-18T10:28:17;26.30;53.60
30148;DHT22;16960;49.404;8.248;2023-09-18T10:30:44;26.30;53.60
30148;DHT22;16960;49.404;8.248;2023-09-18T10:33:11;26.30;53.60
30148;DHT22;16960;49.404;8.248;2023-09-18T10:35:39;26.30;53.60
30148;DHT22;16960;49.404;8.248;2023-09-18T10:38:09;26.30;53.70
30148;DHT22;16960;49.404;8.248;2023-09-18T10:40:36;26.30;53.60
30148;DHT22;16960;49.404;8.248;2023-09-18T10:43:04;26.30;53.70
30148;DHT22;16960;49.404;8.248;2023-09-18T10:45:35;26.30;53.70
30148;DHT22;16960;49.404;8.248;2023-09-18T10:48:03;26.30;53.70
30148;DHT22;16960;49.404;8.248;2023-09-18T10:50:30;26.30;53.80
30148;DHT22;16960;49.404;8.248;2023-09-18T10:52:57;26.30;53.80
30148;DHT22;16960;49.404;8.248;2023-09-18T10:55:26;26.30;53.70
30148;DHT22;16960;49.404;8.248;2023-09-18T10:57:55;26.30;53.70
30148;DHT22;16960;49.404;8.248;2023-09-18T11:00:25;26.30;53.70
30148;DHT22;16960;49.404;8.248;2023-09-18T11:02:52;26.30;53.70
30148;DHT22;16960;49.404;8.248;2023-09-18T11:05:32;26.40;53.70
30148;DHT22;16960;49.404;8.248;2023-09-18T11:08:28;26.30;53.70
30148;DHT22;16960;49.404;8.248;2023-09-18T11:11:00;26.40;53.60
30148;DHT22;16960;49.404;8.248;2023-09-18T11:13:31;26.40;53.60
30148;DHT22;16960;49.404;8.248;2023-09-18T11:16:02;26.40;53.60
30148;DHT22;16960;49.404;8.248;2023-09-18T11:18:37;26.40;53.70
30148;DHT22;16960;49.404;8.248;2023-09-18T11:21:08;26.40;53.70
30148;DHT22;16960;49.404;8.248;2023-09-18T11:23:36;26.40;53.60
30148;DHT22;16960;49.404;8.248;2023-09-18T11:26:07;26.40;53.50
30148;DHT22;16960;49.404;8.248;2023-09-18T11:28:35;26.40;53.50
30148;DHT22;16960;49.404;8.248;2023-09-18T11:31:03;26.50;53.50
30148;DHT22;16960;49.404;8.248;2023-09-18T11:33:32;26.50;53.50
30148;DHT22;16960;49.404;8.248;2023-09-18T11:36:03;26.50;53.50
30148;DHT22;16960;49.404;8.248;2023-09-18T11:38:31;26.50;53.60
30148;DHT22;16960;49.404;8.248;2023-09-18T11:40:59;26.50;54.20
30148;DHT22;16960;49.404;8.248;2023-09-18T11:43:29;26.50;53.40
30148;DHT22;16960;49.404;8.248;2023-09-18T11:45:58;26.50;53.30
30148;DHT22;16960;49.404;8.248;2023-09-18T11:48:26;26.50;53.30
30148;DHT22;16960;49.404;8.248;2023-09-18T11:50:57;26.50;53.20
30148;DHT22;16960;49.404;8.248;2023-09-18T11:53:27;26.60;53.10
30148;DHT22;16960;49.404;8.248;2023-09-18T11:55:54;26.60;53.10
30148;DHT22;16960;49.404;8.248;2023-09-18T11:58:21;26.60;53.10
30148;DHT22;16960;49.404;8.248;2023-09-18T12:00:50;26.60;53.10
30148;DHT22;16960;49.404;8.248;2023-09-18T12:03:18;26.60;53.00
30148;DHT22;16960;49.404;8.248;2023-09-18T12:05:52;26.60;52.90
30148;DHT22;16960;49.404;8.248;2023-09-18T12:08:19;26.60;52.90
30148;DHT22;16960;49.404;8.248;2023-09-18T12:10:49;26.60;52.80
30148;DHT22;16960;49.404;8.248;2023-09-18T12:13:16;26.60;52.80
30148;DHT22;16960;49.404;8.248;2023-09-18T12:15:43;26.70;52.60
30148;DHT22;16960;49.404;8.248;2023-09-18T12:18:11;26.70;52.50
30148;DHT22;16960;49.404;8.248;2023-09-18T12:20:45;26.80;52.40
30148;DHT22;16960;49.404;8.248;2023-09-18T12:23:12;26.80;52.40
30148;DHT22;16960;49.404;8.248;2023-09-18T12:25:40;26.80;52.20
30148;DHT22;16960;49.404;8.248;2023-09-18T12:28:07;26.80;52.20
30148;DHT22;16960;49.404;8.248;2023-09-18T12:30:34;26.80;52.10
30148;DHT22;16960;49.404;8.248;2023-09-18T12:33:01;26.80;52.00
30148;DHT22;16960;49.404;8.248;2023-09-18T12:35:31;26.90;51.90
30148;DHT22;16960;49.404;8.248;2023-09-18T12:37:58;26.90;51.90
30148;DHT22;16960;49.404;8.248;2023-09-18T12:40:28;26.80;51.70
30148;DHT22;16960;49.404;8.248;2023-09-18T12:42:56;26.80;51.70
30148;DHT22;16960;49.404;8.248;2023-09-18T12:45:25;26.90;51.70
30148;DHT22;16960;49.404;8.248;2023-09-18T12:47:55;26.90;51.80
30148;DHT22;16960;49.404;8.248;2023-09-18T12:50:22;26.90;51.70
30148;DHT22;16960;49.404;8.248;2023-09-18T12:52:50;26.90;51.70
30148;DHT22;16960;49.404;8.248;2023-09-18T12:55:24;26.90;51.80
30148;DHT22;16960;49.404;8.248;2023-09-18T12:57:51;26.90;51.80
30148;DHT22;16960;49.404;8.248;2023-09-18T13:00:19;26.90;51.80
30148;DHT22;16960;49.404;8.248;2023-09-18T13:02:46;27.00;52.40
30148;DHT22;16960;49.404;8.248;2023-09-18T13:05:19;26.90;51.80
30148;DHT22;16960;49.404;8.248;2023-09-18T13:07:46;26.90;51.80
30148;DHT22;16960;49.404;8.248;2023-09-18T13:10:15;26.90;51.70
30148;DHT22;16960;49.404;8.248;2023-09-18T13:12:45;26.90;51.70
30148;DHT22;16960;49.404;8.248;2023-09-18T13:15:12;26.90;51.70
30148;DHT22;16960;49.404;8.248;2023-09-18T13:17:40;26.90;51.60
30148;DHT22;16960;49.404;8.248;2023-09-18T13:20:14;26.90;51.60
30148;DHT22;16960;49.404;8.248;2023-09-18T13:22:42;26.90;51.60
30148;DHT22;16960;49.404;8.248;2023-09-18T13:25:09;26.90;51.60
30148;DHT22;16960;49.404;8.248;2023-09-18T13:27:38;26.90;51.50
30148;DHT22;16960;49.404;8.248;2023-09-18T13:30:08;26.90;51.50
30148;DHT22;16960;49.404;8.248;2023-09-18T13:32:35;26.90;51.50
30148;DHT22;16960;49.404;8.248;2023-09-18T13:35:03;26.90;51.40
30148;DHT22;16960;49.404;8.248;2023-09-18T13:37:32;26.90;51.40
30148;DHT22;16960;49.404;8.248;2023-09-18T13:39:59;27.00;51.90
30148;DHT22;16960;49.404;8.248;2023-09-18T13:42:28;27.00;52.70
30148;DHT22;16960;49.404;8.248;2023-09-18T13:44:58;27.00;51.90
30148;DHT22;16960;49.404;8.248;2023-09-18T13:47:26;27.00;52.00
30148;DHT22;16960;49.404;8.248;2023-09-18T13:49:54;27.10;51.70
30148;DHT22;16960;49.404;8.248;2023-09-18T13:52:25;27.10;51.70
30148;DHT22;16960;49.404;8.248;2023-09-18T13:54:52;27.00;51.70
30148;DHT22;16960;49.404;8.248;2023-09-18T13:57:19;27.00;51.70
30148;DHT22;16960;49.404;8.248;2023-09-18T13:59:46;27.00;51.40
30148;DHT22;16960;49.404;8.248;2023-09-18T14:02:15;27.00;51.00
30148;DHT22;16960;49.404;8.248;2023-09-18T14:04:43;27.00;51.10
30148;DHT22;16960;49.404;8.248;2023-09-18T14:07:11;27.00;51.00
30148;DHT22;16960;49.404;8.248;2023-09-18T14:09:38;27.00;50.90
30148;DHT22;16960;49.404;8.248;2023-09-18T14:12:06;27.00;51.00
30148;DHT22;16960;49.404;8.248;2023-09-18T14:14:34;27.00;50.80
30148;DHT22;16960;49.404;8.248;2023-09-18T14:17:01;27.00;50.50
30148;DHT22;16960;49.404;8.248;2023-09-18T14:19:30;27.00;50.40
30148;DHT22;16960;49.404;8.248;2023-09-18T14:21:57;27.00;50.60
30148;DHT22;16960;49.404;8.248;2023-09-18T14:24:29;27.00;51.00
30148;DHT22;16960;49.404;8.248;2023-09-18T14:26:56;27.00;50.60
30148;DHT22;16960;49.404;8.248;2023-09-18T14:29:22;27.00;50.80
30148;DHT22;16960;49.404;8.248;2023-09-18T14:31:49;27.00;50.90
30148;DHT22;16960;49.404;8.248;2023-09-18T14:34:16;27.00;50.90
30148;DHT22;16960;49.404;8.248;2023-09-18T14:36:44;27.00;51.00
30148;DHT22;16960;49.404;8.248;2023-09-18T14:39:12;27.00;50.90
30148;DHT22;16960;49.404;8.248;2023-09-18T14:41:39;27.00;50.90
30148;DHT22;16960;49.404;8.248;2023-09-18T14:44:07;27.00;50.80
30148;DHT22;16960;49.404;8.248;2023-09-18T14:46:35;27.00;50.70
30148;DHT22;16960;49.404;8.248;2023-09-18T14:49:03;27.00;50.60
30148;DHT22;16960;49.404;8.248;2023-09-18T14:51:30;27.00;50.60
30148;DHT22;16960;49.404;8.248;2023-09-18T14:53:59;27.00;50.60
30148;DHT22;16960;49.404;8.248;2023-09-18T14:56:26;27.00;50.50
30148;DHT22;16960;49.404;8.248;2023-09-18T14:58:53;27.10;50.30
30148;DHT22;16960;49.404;8.248;2023-09-18T15:01:21;27.10;50.20
30148;DHT22;16960;49.404;8.248;2023-09-18T15:03:48;27.10;50.20
30148;DHT22;16960;49.404;8.248;2023-09-18T15:06:15;27.10;50.10
30148;DHT22;16960;49.404;8.248;2023-09-18T15:08:42;27.10;49.90
30148;DHT22;16960;49.404;8.248;2023-09-18T15:11:11;27.10;49.50
30148;DHT22;16960;49.404;8.248;2023-09-18T15:13:38;27.10;49.40
30148;DHT22;16960;49.404;8.248;2023-09-18T15:16:05;27.10;49.20
30148;DHT22;16960;49.404;8.248;2023-09-18T15:18:32;27.10;49.10
30148;DHT22;16960;49.404;8.248;2023-09-18T15:20:59;27.10;49.10
30148;DHT22;16960;49.404;8.248;2023-09-18T15:23:26;27.10;49.10
30148;DHT22;16960;49.404;8.248;2023-09-18T15:25:53;27.10;49.10
30148;DHT22;16960;49.404;8.248;2023-09-18T15:28:22;27.10;48.90
30148;DHT22;16960;49.404;8.248;2023-09-18T15:30:51;27.10;48.90
30148;DHT22;16960;49.404;8.248;2023-09-18T15:33:18;27.10;49.00
30148;DHT22;16960;49.404;8.248;2023-09-18T15:35:47;27.10;49.00
30148;DHT22;16960;49.404;8.248;2023-09-18T15:38:15;27.20;49.20